sensor_id;sensor_type;location;lat;lon;timestamp;P1;durP1;ratioP1;P2;durP2;ratioP2
57055;SDS011;42945;51.718;5.324;2022-11-22T00:00:33;18.70;;;5.38;;
57055;SDS011;42945;51.718;5.324;2022-11-22T00:02:58;13.93;;;5.97;;
57055;SDS011;42945;51.718;5.324;2022-11-22T00:05:23;17.63;;;5.63;;
57055;SDS011;42945;51.718;5.324;2022-11-22T00:07:48;15.43;;;5.00;;
57055;SDS011;42945;51.718;5.324;2022-11-22T00:10:15;12.75;;;5.38;;
57055;SDS011;42945;51.718;5.324;2022-11-22T00:12:41;20.60;;;5.25;;
57055;SDS011;42945;51.718;5.324;2022-11-22T00:15:06;15.60;;;5.50;;
57055;SDS011;42945;51.718;5.324;2022-11-22T00:17:33;17.92;;;5.53;;
57055;SDS011;42945;51.718;5.324;2022-11-22T00:19:58;14.30;;;5.78;;
57055;SDS011;42945;51.718;5.324;2022-11-22T00:22:24;14.68;;;5.15;;
57055;SDS011;42945;51.718;5.324;2022-11-22T00:24:50;20.95;;;5.72;;
57055;SDS011;42945;51.718;5.324;2022-11-22T00:27:16;19.15;;;5.85;;
57055;SDS011;42945;51.718;5.324;2022-11-22T00:29:43;22.13;;;6.00;;
57055;SDS011;42945;51.718;5.324;2022-11-22T00:32:08;16.73;;;5.70;;
57055;SDS011;42945;51.718;5.324;2022-11-22T00:34:34;13.75;;;5.55;;
57055;SDS011;42945;51.718;5.324;2022-11-22T00:36:59;16.92;;;5.55;;
57055;SDS011;42945;51.718;5.324;2022-11-22T00:39:24;17.27;;;5.65;;
57055;SDS011;42945;51.718;5.324;2022-11-22T00:41:49;15.07;;;6.13;;
57055;SDS011;42945;51.718;5.324;2022-11-22T00:44:15;16.45;;;5.50;;
57055;SDS011;42945;51.718;5.324;2022-11-22T00:46:40;15.15;;;5.60;;
57055;SDS011;42945;51.718;5.324;2022-11-22T00:49:05;17.38;;;5.22;;
57055;SDS011;42945;51.718;5.324;2022-11-22T00:51:31;19.48;;;5.40;;
57055;SDS011;42945;51.718;5.324;2022-11-22T00:53:56;13.82;;;5.30;;
57055;SDS011;42945;51.718;5.324;2022-11-22T00:56:22;19.55;;;6.50;;
57055;SDS011;42945;51.718;5.324;2022-11-22T00:58:47;15.38;;;5.05;;
57055;SDS011;42945;51.718;5.324;2022-11-22T01:01:12;15.27;;;5.15;;
57055;SDS011;42945;51.718;5.324;2022-11-22T01:03:37;18.92;;;5.80;;
57055;SDS011;42945;51.718;5.324;2022-11-22T01:06:04;21.33;;;5.38;;
57055;SDS011;42945;51.718;5.324;2022-11-22T01:08:29;18.52;;;5.25;;
57055;SDS011;42945;51.718;5.324;2022-11-22T01:10:55;15.18;;;4.95;;
57055;SDS011;42945;51.718;5.324;2022-11-22T01:13:22;17.48;;;5.78;;
57055;SDS011;42945;51.718;5.324;2022-11-22T01:15:47;16.77;;;5.10;;
57055;SDS011;42945;51.718;5.324;2022-11-22T01:18:12;15.23;;;4.80;;
57055;SDS011;42945;51.718;5.324;2022-11-22T01:20:39;18.88;;;5.40;;
57055;SDS011;42945;51.718;5.324;2022-11-22T01:23:04;19.50;;;4.90;;
57055;SDS011;42945;51.718;5.324;2022-11-22T01:25:30;14.82;;;4.75;;
57055;SDS011;42945;51.718;5.324;2022-11-22T01:27:55;18.33;;;5.07;;
57055;SDS011;42945;51.718;5.324;2022-11-22T01:30:20;23.73;;;5.03;;
57055;SDS011;42945;51.718;5.324;2022-11-22T01:32:46;17.05;;;4.60;;
57055;SDS011;42945;51.718;5.324;2022-11-22T01:35:11;21.52;;;4.80;;
57055;SDS011;42945;51.718;5.324;2022-11-22T01:37:36;15.23;;;4.43;;
57055;SDS011;42945;51.718;5.324;2022-11-22T01:40:02;23.70;;;5.38;;
57055;SDS011;42945;51.718;5.324;2022-11-22T01:42:45;16.90;;;4.35;;
57055;SDS011;42945;51.718;5.324;2022-11-22T01:47:58;15.88;;;4.40;;
57055;SDS011;42945;51.718;5.324;2022-11-22T01:50:42;24.73;;;4.20;;
57055;SDS011;42945;51.718;5.324;2022-11-22T01:53:11;19.92;;;4.03;;
57055;SDS011;42945;51.718;5.324;2022-11-22T01:55:41;16.50;;;4.00;;
57055;SDS011;42945;51.718;5.324;2022-11-22T01:58:08;18.85;;;4.30;;
57055;SDS011;42945;51.718;5.324;2022-11-22T02:00:36;15.55;;;3.78;;
57055;SDS011;42945;51.718;5.324;2022-11-22T02:03:02;22.02;;;4.15;;
57055;SDS011;42945;51.718;5.324;2022-11-22T02:05:31;22.60;;;3.72;;
57055;SDS011;42945;51.718;5.324;2022-11-22T02:08:00;19.85;;;3.83;;
57055;SDS011;42945;51.718;5.324;2022-11-22T02:10:29;22.73;;;3.70;;
57055;SDS011;42945;51.718;5.324;2022-11-22T02:13:01;16.80;;;4.22;;
57055;SDS011;42945;51.718;5.324;2022-11-22T02:15:27;20.80;;;3.97;;
57055;SDS011;42945;51.718;5.324;2022-11-22T02:17:55;17.17;;;3.33;;
57055;SDS011;42945;51.718;5.324;2022-11-22T02:20:21;18.13;;;3.35;;
57055;SDS011;42945;51.718;5.324;2022-11-22T02:28:00;20.83;;;3.30;;
57055;SDS011;42945;51.718;5.324;2022-11-22T02:30:27;29.70;;;3.25;;
57055;SDS011;42945;51.718;5.324;2022-11-22T02:32:52;19.27;;;3.60;;
57055;SDS011;42945;51.718;5.324;2022-11-22T02:37:45;20.92;;;3.15;;
57055;SDS011;42945;51.718;5.324;2022-11-22T02:40:13;15.77;;;2.95;;
57055;SDS011;42945;51.718;5.324;2022-11-22T02:42:45;20.48;;;3.40;;
57055;SDS011;42945;51.718;5.324;2022-11-22T02:45:13;20.00;;;3.10;;
57055;SDS011;42945;51.718;5.324;2022-11-22T02:47:38;16.77;;;2.70;;
57055;SDS011;42945;51.718;5.324;2022-11-22T02:50:04;16.98;;;2.88;;
57055;SDS011;42945;51.718;5.324;2022-11-22T02:52:30;13.68;;;2.65;;
57055;SDS011;42945;51.718;5.324;2022-11-22T02:54:56;19.40;;;3.28;;
57055;SDS011;42945;51.718;5.324;2022-11-22T02:57:22;26.10;;;3.28;;
57055;SDS011;42945;51.718;5.324;2022-11-22T02:59:47;23.30;;;2.85;;
57055;SDS011;42945;51.718;5.324;2022-11-22T03:02:13;23.63;;;3.47;;
57055;SDS011;42945;51.718;5.324;2022-11-22T03:04:41;22.17;;;3.35;;
57055;SDS011;42945;51.718;5.324;2022-11-22T03:07:07;16.70;;;2.58;;
57055;SDS011;42945;51.718;5.324;2022-11-22T03:09:32;25.38;;;3.20;;
57055;SDS011;42945;51.718;5.324;2022-11-22T03:11:57;17.55;;;2.38;;
57055;SDS011;42945;51.718;5.324;2022-11-22T03:14:23;21.60;;;2.58;;
57055;SDS011;42945;51.718;5.324;2022-11-22T03:16:49;13.02;;;2.28;;
57055;SDS011;42945;51.718;5.324;2022-11-22T03:19:14;18.70;;;2.58;;
57055;SDS011;42945;51.718;5.324;2022-11-22T03:21:40;16.35;;;2.53;;
57055;SDS011;42945;51.718;5.324;2022-11-22T03:24:06;16.52;;;2.88;;
57055;SDS011;42945;51.718;5.324;2022-11-22T03:26:32;27.73;;;2.63;;
57055;SDS011;42945;51.718;5.324;2022-11-22T03:32:03;18.50;;;2.78;;
57055;SDS011;42945;51.718;5.324;2022-11-22T03:34:29;20.98;;;2.38;;
57055;SDS011;42945;51.718;5.324;2022-11-22T03:36:54;18.02;;;2.63;;
57055;SDS011;42945;51.718;5.324;2022-11-22T03:39:19;17.52;;;2.67;;
57055;SDS011;42945;51.718;5.324;2022-11-22T03:41:45;24.80;;;2.88;;
57055;SDS011;42945;51.718;5.324;2022-11-22T03:44:10;18.08;;;2.38;;
57055;SDS011;42945;51.718;5.324;2022-11-22T03:46:35;20.40;;;2.40;;
57055;SDS011;42945;51.718;5.324;2022-11-22T03:49:01;27.70;;;3.03;;
57055;SDS011;42945;51.718;5.324;2022-11-22T03:51:26;13.30;;;2.45;;
57055;SDS011;42945;51.718;5.324;2022-11-22T03:53:52;17.70;;;2.20;;
57055;SDS011;42945;51.718;5.324;2022-11-22T03:56:17;18.05;;;2.17;;
57055;SDS011;42945;51.718;5.324;2022-11-22T03:58:42;20.15;;;2.67;;
57055;SDS011;42945;51.718;5.324;2022-11-22T04:01:08;19.90;;;2.50;;
57055;SDS011;42945;51.718;5.324;2022-11-22T04:03:34;18.85;;;2.30;;
57055;SDS011;42945;51.718;5.324;2022-11-22T04:05:59;23.98;;;2.83;;
57055;SDS011;42945;51.718;5.324;2022-11-22T04:08:25;14.45;;;1.83;;
57055;SDS011;42945;51.718;5.324;2022-11-22T04:10:50;16.85;;;2.13;;
57055;SDS011;42945;51.718;5.324;2022-11-22T04:13:16;15.35;;;2.15;;
57055;SDS011;42945;51.718;5.324;2022-11-22T04:15:42;18.35;;;2.35;;
57055;SDS011;42945;51.718;5.324;2022-11-22T04:18:08;25.17;;;2.28;;
57055;SDS011;42945;51.718;5.324;2022-11-22T04:20:34;12.82;;;2.33;;
57055;SDS011;42945;51.718;5.324;2022-11-22T04:23:19;18.80;;;2.33;;
57055;SDS011;42945;51.718;5.324;2022-11-22T04:25:46;16.35;;;1.67;;
57055;SDS011;42945;51.718;5.324;2022-11-22T04:28:14;18.48;;;2.60;;
57055;SDS011;42945;51.718;5.324;2022-11-22T04:30:40;21.63;;;2.38;;
57055;SDS011;42945;51.718;5.324;2022-11-22T04:33:24;20.88;;;2.40;;
57055;SDS011;42945;51.718;5.324;2022-11-22T04:35:50;20.00;;;2.55;;
57055;SDS011;42945;51.718;5.324;2022-11-22T04:38:16;12.75;;;2.10;;
57055;SDS011;42945;51.718;5.324;2022-11-22T04:40:42;19.40;;;2.42;;
57055;SDS011;42945;51.718;5.324;2022-11-22T04:43:09;21.40;;;2.15;;
57055;SDS011;42945;51.718;5.324;2022-11-22T04:45:58;18.85;;;2.38;;
57055;SDS011;42945;51.718;5.324;2022-11-22T04:48:24;15.93;;;2.65;;
57055;SDS011;42945;51.718;5.324;2022-11-22T04:50:49;13.57;;;1.88;;
57055;SDS011;42945;51.718;5.324;2022-11-22T04:53:33;16.33;;;2.10;;
57055;SDS011;42945;51.718;5.324;2022-11-22T04:55:58;17.02;;;2.00;;
57055;SDS011;42945;51.718;5.324;2022-11-22T04:58:24;19.90;;;1.83;;
57055;SDS011;42945;51.718;5.324;2022-11-22T05:00:50;25.40;;;2.45;;
57055;SDS011;42945;51.718;5.324;2022-11-22T05:03:16;17.33;;;2.30;;
57055;SDS011;42945;51.718;5.324;2022-11-22T05:05:42;21.67;;;2.33;;
57055;SDS011;42945;51.718;5.324;2022-11-22T05:08:08;18.42;;;2.25;;
57055;SDS011;42945;51.718;5.324;2022-11-22T05:10:34;13.50;;;1.70;;
57055;SDS011;42945;51.718;5.324;2022-11-22T05:13:19;21.92;;;2.35;;
57055;SDS011;42945;51.718;5.324;2022-11-22T05:15:47;13.57;;;1.70;;
57055;SDS011;42945;51.718;5.324;2022-11-22T05:18:15;15.18;;;2.40;;
57055;SDS011;42945;51.718;5.324;2022-11-22T05:20:41;14.75;;;2.45;;
57055;SDS011;42945;51.718;5.324;2022-11-22T05:23:07;19.52;;;2.28;;
57055;SDS011;42945;51.718;5.324;2022-11-22T05:25:51;14.50;;;1.88;;
57055;SDS011;42945;51.718;5.324;2022-11-22T05:28:16;18.48;;;1.85;;
57055;SDS011;42945;51.718;5.324;2022-11-22T05:30:41;15.43;;;2.30;;
57055;SDS011;42945;51.718;5.324;2022-11-22T05:33:07;11.68;;;1.73;;
57055;SDS011;42945;51.718;5.324;2022-11-22T05:35:32;18.25;;;1.95;;
57055;SDS011;42945;51.718;5.324;2022-11-22T05:37:58;14.57;;;2.13;;
57055;SDS011;42945;51.718;5.324;2022-11-22T05:40:23;13.73;;;1.80;;
57055;SDS011;42945;51.718;5.324;2022-11-22T05:42:49;13.20;;;1.60;;
57055;SDS011;42945;51.718;5.324;2022-11-22T05:45:15;19.55;;;2.20;;
57055;SDS011;42945;51.718;5.324;2022-11-22T05:47:40;16.23;;;2.22;;
57055;SDS011;42945;51.718;5.324;2022-11-22T05:50:06;14.02;;;1.77;;
57055;SDS011;42945;51.718;5.324;2022-11-22T05:52:32;20.45;;;2.67;;
57055;SDS011;42945;51.718;5.324;2022-11-22T05:54:58;13.30;;;2.15;;
57055;SDS011;42945;51.718;5.324;2022-11-22T05:57:23;16.63;;;2.03;;
57055;SDS011;42945;51.718;5.324;2022-11-22T05:59:48;18.65;;;2.05;;
57055;SDS011;42945;51.718;5.324;2022-11-22T06:02:14;15.13;;;2.10;;
57055;SDS011;42945;51.718;5.324;2022-11-22T06:04:39;13.02;;;1.73;;
57055;SDS011;42945;51.718;5.324;2022-11-22T06:07:04;13.70;;;1.90;;
57055;SDS011;42945;51.718;5.324;2022-11-22T06:09:30;15.00;;;1.63;;
57055;SDS011;42945;51.718;5.324;2022-11-22T06:11:55;10.18;;;1.98;;
57055;SDS011;42945;51.718;5.324;2022-11-22T06:14:20;13.23;;;1.88;;
57055;SDS011;42945;51.718;5.324;2022-11-22T06:16:45;15.48;;;2.33;;
57055;SDS011;42945;51.718;5.324;2022-11-22T06:19:11;10.10;;;1.65;;
57055;SDS011;42945;51.718;5.324;2022-11-22T06:21:37;18.05;;;2.42;;
57055;SDS011;42945;51.718;5.324;2022-11-22T06:24:02;18.00;;;2.03;;
57055;SDS011;42945;51.718;5.324;2022-11-22T06:26:28;17.50;;;2.75;;
57055;SDS011;42945;51.718;5.324;2022-11-22T06:28:53;14.85;;;2.40;;
57055;SDS011;42945;51.718;5.324;2022-11-22T06:31:20;18.10;;;2.25;;
57055;SDS011;42945;51.718;5.324;2022-11-22T06:33:47;16.42;;;2.20;;
57055;SDS011;42945;51.718;5.324;2022-11-22T06:38:43;18.42;;;2.33;;
57055;SDS011;42945;51.718;5.324;2022-11-22T06:41:10;15.57;;;2.00;;
57055;SDS011;42945;51.718;5.324;2022-11-22T06:43:38;16.98;;;2.50;;
57055;SDS011;42945;51.718;5.324;2022-11-22T06:46:05;16.35;;;2.50;;
57055;SDS011;42945;51.718;5.324;2022-11-22T06:48:32;13.20;;;2.15;;
57055;SDS011;42945;51.718;5.324;2022-11-22T06:51:06;15.85;;;2.75;;
57055;SDS011;42945;51.718;5.324;2022-11-22T06:53:37;15.77;;;2.42;;
57055;SDS011;42945;51.718;5.324;2022-11-22T06:56:10;16.10;;;2.42;;
57055;SDS011;42945;51.718;5.324;2022-11-22T06:58:37;14.35;;;2.90;;
57055;SDS011;42945;51.718;5.324;2022-11-22T07:01:04;15.80;;;2.80;;
57055;SDS011;42945;51.718;5.324;2022-11-22T07:03:33;15.15;;;2.30;;
57055;SDS011;42945;51.718;5.324;2022-11-22T07:06:00;19.13;;;2.97;;
57055;SDS011;42945;51.718;5.324;2022-11-22T07:08:26;16.08;;;3.03;;
57055;SDS011;42945;51.718;5.324;2022-11-22T07:10:52;9.85;;;1.90;;
57055;SDS011;42945;51.718;5.324;2022-11-22T07:13:17;17.00;;;3.13;;
57055;SDS011;42945;51.718;5.324;2022-11-22T07:15:43;16.00;;;3.13;;
57055;SDS011;42945;51.718;5.324;2022-11-22T07:18:18;15.07;;;3.20;;
57055;SDS011;42945;51.718;5.324;2022-11-22T07:20:43;12.25;;;3.00;;
57055;SDS011;42945;51.718;5.324;2022-11-22T07:23:08;12.65;;;2.92;;
57055;SDS011;42945;51.718;5.324;2022-11-22T07:25:36;15.15;;;2.78;;
57055;SDS011;42945;51.718;5.324;2022-11-22T07:28:01;15.23;;;3.53;;
57055;SDS011;42945;51.718;5.324;2022-11-22T07:30:27;17.15;;;3.63;;
57055;SDS011;42945;51.718;5.324;2022-11-22T07:32:52;14.95;;;3.25;;
57055;SDS011;42945;51.718;5.324;2022-11-22T07:35:17;16.27;;;3.10;;
57055;SDS011;42945;51.718;5.324;2022-11-22T07:37:42;14.90;;;3.60;;
57055;SDS011;42945;51.718;5.324;2022-11-22T07:40:08;12.45;;;2.40;;
57055;SDS011;42945;51.718;5.324;2022-11-22T07:42:34;19.90;;;3.47;;
57055;SDS011;42945;51.718;5.324;2022-11-22T07:44:59;15.40;;;3.22;;
57055;SDS011;42945;51.718;5.324;2022-11-22T07:47:25;12.60;;;2.78;;
57055;SDS011;42945;51.718;5.324;2022-11-22T07:49:50;13.32;;;2.88;;
57055;SDS011;42945;51.718;5.324;2022-11-22T07:52:15;11.00;;;2.45;;
57055;SDS011;42945;51.718;5.324;2022-11-22T07:54:40;9.95;;;2.55;;
57055;SDS011;42945;51.718;5.324;2022-11-22T07:57:06;11.27;;;2.72;;
57055;SDS011;42945;51.718;5.324;2022-11-22T07:59:31;12.38;;;2.70;;
57055;SDS011;42945;51.718;5.324;2022-11-22T08:01:56;15.32;;;2.42;;
57055;SDS011;42945;51.718;5.324;2022-11-22T08:04:22;15.13;;;2.90;;
57055;SDS011;42945;51.718;5.324;2022-11-22T08:06:47;14.35;;;2.58;;
57055;SDS011;42945;51.718;5.324;2022-11-22T08:09:12;13.90;;;2.45;;
57055;SDS011;42945;51.718;5.324;2022-11-22T08:11:37;11.13;;;2.63;;
57055;SDS011;42945;51.718;5.324;2022-11-22T08:14:03;14.18;;;2.70;;
57055;SDS011;42945;51.718;5.324;2022-11-22T08:16:28;11.32;;;2.28;;
57055;SDS011;42945;51.718;5.324;2022-11-22T08:18:54;12.07;;;2.47;;
57055;SDS011;42945;51.718;5.324;2022-11-22T08:21:19;16.33;;;2.83;;
57055;SDS011;42945;51.718;5.324;2022-11-22T08:23:45;11.77;;;2.13;;
57055;SDS011;42945;51.718;5.324;2022-11-22T08:26:12;9.18;;;2.03;;
57055;SDS011;42945;51.718;5.324;2022-11-22T08:28:39;12.80;;;2.65;;
57055;SDS011;42945;51.718;5.324;2022-11-22T08:31:06;10.68;;;2.15;;
57055;SDS011;42945;51.718;5.324;2022-11-22T08:33:38;9.07;;;2.00;;
57055;SDS011;42945;51.718;5.324;2022-11-22T08:36:04;8.32;;;2.10;;
57055;SDS011;42945;51.718;5.324;2022-11-22T08:38:30;11.38;;;2.50;;
57055;SDS011;42945;51.718;5.324;2022-11-22T08:40:56;12.00;;;2.30;;
57055;SDS011;42945;51.718;5.324;2022-11-22T08:43:21;10.63;;;2.30;;
57055;SDS011;42945;51.718;5.324;2022-11-22T08:45:47;12.20;;;2.33;;
57055;SDS011;42945;51.718;5.324;2022-11-22T08:48:17;11.35;;;2.17;;
57055;SDS011;42945;51.718;5.324;2022-11-22T08:50:48;9.73;;;2.13;;
57055;SDS011;42945;51.718;5.324;2022-11-22T08:53:18;11.45;;;2.22;;
57055;SDS011;42945;51.718;5.324;2022-11-22T08:55:50;13.02;;;2.05;;
57055;SDS011;42945;51.718;5.324;2022-11-22T08:58:16;13.13;;;2.05;;
57055;SDS011;42945;51.718;5.324;2022-11-22T09:00:41;10.82;;;2.17;;
57055;SDS011;42945;51.718;5.324;2022-11-22T09:03:07;9.95;;;2.50;;
57055;SDS011;42945;51.718;5.324;2022-11-22T09:05:33;13.38;;;2.10;;
57055;SDS011;42945;51.718;5.324;2022-11-22T09:08:01;10.13;;;2.22;;
57055;SDS011;42945;51.718;5.324;2022-11-22T09:10:26;12.48;;;2.38;;
57055;SDS011;42945;51.718;5.324;2022-11-22T09:12:52;9.43;;;1.95;;
57055;SDS011;42945;51.718;5.324;2022-11-22T09:15:17;9.52;;;2.00;;
57055;SDS011;42945;51.718;5.324;2022-11-22T09:17:42;15.30;;;1.83;;
57055;SDS011;42945;51.718;5.324;2022-11-22T09:20:09;9.60;;;1.88;;
57055;SDS011;42945;51.718;5.324;2022-11-22T09:22:35;12.52;;;1.95;;
57055;SDS011;42945;51.718;5.324;2022-11-22T09:25:01;15.60;;;1.90;;
57055;SDS011;42945;51.718;5.324;2022-11-22T09:27:28;12.15;;;1.60;;
57055;SDS011;42945;51.718;5.324;2022-11-22T09:29:53;8.82;;;1.77;;
57055;SDS011;42945;51.718;5.324;2022-11-22T09:32:19;4.95;;;1.70;;
57055;SDS011;42945;51.718;5.324;2022-11-22T09:34:44;8.32;;;1.88;;
57055;SDS011;42945;51.718;5.324;2022-11-22T09:37:10;12.10;;;2.10;;
57055;SDS011;42945;51.718;5.324;2022-11-22T09:39:36;9.10;;;1.65;;
57055;SDS011;42945;51.718;5.324;2022-11-22T09:44:53;11.00;;;2.28;;
57055;SDS011;42945;51.718;5.324;2022-11-22T09:50:32;10.70;;;2.53;;
57055;SDS011;42945;51.718;5.324;2022-11-22T09:55:46;13.18;;;2.10;;
57055;SDS011;42945;51.718;5.324;2022-11-22T09:58:28;11.27;;;2.10;;
57055;SDS011;42945;51.718;5.324;2022-11-22T10:01:17;6.88;;;1.77;;
57055;SDS011;42945;51.718;5.324;2022-11-22T10:03:53;9.20;;;1.60;;
57055;SDS011;42945;51.718;5.324;2022-11-22T10:06:28;8.73;;;1.92;;
57055;SDS011;42945;51.718;5.324;2022-11-22T10:11:47;8.90;;;1.83;;
57055;SDS011;42945;51.718;5.324;2022-11-22T10:14:21;9.00;;;1.98;;
57055;SDS011;42945;51.718;5.324;2022-11-22T10:17:00;11.05;;;2.15;;
57055;SDS011;42945;51.718;5.324;2022-11-22T10:19:50;9.13;;;1.88;;
57055;SDS011;42945;51.718;5.324;2022-11-22T10:22:22;6.20;;;1.50;;
57055;SDS011;42945;51.718;5.324;2022-11-22T10:24:52;9.75;;;1.88;;
57055;SDS011;42945;51.718;5.324;2022-11-22T10:27:18;10.98;;;1.83;;
57055;SDS011;42945;51.718;5.324;2022-11-22T10:32:39;7.15;;;1.55;;
57055;SDS011;42945;51.718;5.324;2022-11-22T10:38:30;7.82;;;1.80;;
57055;SDS011;42945;51.718;5.324;2022-11-22T11:00:55;6.35;;;1.55;;
57055;SDS011;42945;51.718;5.324;2022-11-22T11:03:40;3.90;;;1.13;;
57055;SDS011;42945;51.718;5.324;2022-11-22T11:06:10;6.38;;;1.10;;
57055;SDS011;42945;51.718;5.324;2022-11-22T11:08:51;7.63;;;1.58;;
57055;SDS011;42945;51.718;5.324;2022-11-22T11:11:22;9.90;;;1.23;;
57055;SDS011;42945;51.718;5.324;2022-11-22T11:16:21;6.03;;;1.17;;
57055;SDS011;42945;51.718;5.324;2022-11-22T11:19:14;4.60;;;0.95;;
57055;SDS011;42945;51.718;5.324;2022-11-22T11:21:35;5.78;;;1.17;;
57055;SDS011;42945;51.718;5.324;2022-11-22T11:24:01;5.60;;;1.25;;
57055;SDS011;42945;51.718;5.324;2022-11-22T11:26:30;3.38;;;1.17;;
57055;SDS011;42945;51.718;5.324;2022-11-22T11:31:45;5.00;;;1.52;;
57055;SDS011;42945;51.718;5.324;2022-11-22T11:36:53;5.47;;;1.48;;
57055;SDS011;42945;51.718;5.324;2022-11-22T11:39:31;5.25;;;1.40;;
57055;SDS011;42945;51.718;5.324;2022-11-22T11:41:58;6.60;;;1.77;;
57055;SDS011;42945;51.718;5.324;2022-11-22T11:44:31;5.38;;;1.52;;
57055;SDS011;42945;51.718;5.324;2022-11-22T11:47:00;4.30;;;1.45;;
57055;SDS011;42945;51.718;5.324;2022-11-22T11:49:27;2.95;;;1.05;;
57055;SDS011;42945;51.718;5.324;2022-11-22T11:51:57;4.82;;;1.33;;
57055;SDS011;42945;51.718;5.324;2022-11-22T11:57:04;5.30;;;1.55;;
57055;SDS011;42945;51.718;5.324;2022-11-22T12:04:33;3.67;;;1.10;;
57055;SDS011;42945;51.718;5.324;2022-11-22T12:07:15;5.50;;;1.20;;
57055;SDS011;42945;51.718;5.324;2022-11-22T12:09:46;5.72;;;1.23;;
57055;SDS011;42945;51.718;5.324;2022-11-22T12:14:47;4.10;;;1.10;;
57055;SDS011;42945;51.718;5.324;2022-11-22T12:17:23;5.55;;;1.20;;
57055;SDS011;42945;51.718;5.324;2022-11-22T12:20:16;4.85;;;2.00;;
57055;SDS011;42945;51.718;5.324;2022-11-22T12:25:25;3.08;;;0.80;;
57055;SDS011;42945;51.718;5.324;2022-11-22T12:28:21;4.85;;;1.02;;
57055;SDS011;42945;51.718;5.324;2022-11-22T12:30:56;4.05;;;0.98;;
57055;SDS011;42945;51.718;5.324;2022-11-22T12:33:33;2.83;;;0.70;;
57055;SDS011;42945;51.718;5.324;2022-11-22T12:36:02;2.45;;;0.80;;
57055;SDS011;42945;51.718;5.324;2022-11-22T12:38:31;18.90;;;7.88;;
57055;SDS011;42945;51.718;5.324;2022-11-22T12:41:04;4.88;;;2.28;;
57055;SDS011;42945;51.718;5.324;2022-11-22T12:43:40;2.13;;;0.95;;
57055;SDS011;42945;51.718;5.324;2022-11-22T12:46:12;2.63;;;0.77;;
57055;SDS011;42945;51.718;5.324;2022-11-22T12:48:47;2.83;;;0.70;;
57055;SDS011;42945;51.718;5.324;2022-11-22T12:54:16;3.92;;;1.00;;
57055;SDS011;42945;51.718;5.324;2022-11-22T13:05:02;2.22;;;0.50;;
57055;SDS011;42945;51.718;5.324;2022-11-22T13:10:38;2.75;;;0.60;;
57055;SDS011;42945;51.718;5.324;2022-11-22T13:16:08;1.95;;;0.43;;
57055;SDS011;42945;51.718;5.324;2022-11-22T13:18:45;1.80;;;0.40;;
57055;SDS011;42945;51.718;5.324;2022-11-22T13:23:57;2.10;;;0.40;;
57055;SDS011;42945;51.718;5.324;2022-11-22T13:29:01;2.25;;;0.43;;
57055;SDS011;42945;51.718;5.324;2022-11-22T13:31:35;1.15;;;0.45;;
57055;SDS011;42945;51.718;5.324;2022-11-22T13:34:00;2.75;;;0.60;;
57055;SDS011;42945;51.718;5.324;2022-11-22T13:38:53;2.28;;;0.45;;
57055;SDS011;42945;51.718;5.324;2022-11-22T13:43:49;0.75;;;0.25;;
57055;SDS011;42945;51.718;5.324;2022-11-22T13:54:40;1.80;;;0.70;;
57055;SDS011;42945;51.718;5.324;2022-11-22T14:02:40;1.27;;;0.50;;
57055;SDS011;42945;51.718;5.324;2022-11-22T14:07:43;3.72;;;0.40;;
57055;SDS011;42945;51.718;5.324;2022-11-22T14:13:24;2.95;;;0.70;;
57055;SDS011;42945;51.718;5.324;2022-11-22T14:18:50;4.65;;;1.45;;
57055;SDS011;42945;51.718;5.324;2022-11-22T14:21:54;0.77;;;0.52;;
57055;SDS011;42945;51.718;5.324;2022-11-22T14:32:14;2.53;;;0.70;;
57055;SDS011;42945;51.718;5.324;2022-11-22T14:36:11;1.77;;;0.60;;
57055;SDS011;42945;51.718;5.324;2022-11-22T14:38:02;1.92;;;0.60;;
57055;SDS011;42945;51.718;5.324;2022-11-22T14:40:48;0.85;;;0.68;;
57055;SDS011;42945;51.718;5.324;2022-11-22T14:46:16;2.03;;;0.65;;
57055;SDS011;42945;51.718;5.324;2022-11-22T14:52:40;3.30;;;0.60;;
57055;SDS011;42945;51.718;5.324;2022-11-22T14:55:03;2.05;;;0.63;;
57055;SDS011;42945;51.718;5.324;2022-11-22T14:57:35;0.90;;;0.50;;
57055;SDS011;42945;51.718;5.324;2022-11-22T15:00:05;3.70;;;0.70;;
57055;SDS011;42945;51.718;5.324;2022-11-22T15:11:22;1.20;;;0.95;;
57055;SDS011;42945;51.718;5.324;2022-11-22T15:16:55;1.52;;;0.52;;
57055;SDS011;42945;51.718;5.324;2022-11-22T15:19:31;2.53;;;0.90;;
57055;SDS011;42945;51.718;5.324;2022-11-22T15:22:08;1.83;;;0.77;;
57055;SDS011;42945;51.718;5.324;2022-11-22T15:24:39;2.92;;;0.85;;
57055;SDS011;42945;51.718;5.324;2022-11-22T15:27:09;4.25;;;0.82;;
57055;SDS011;42945;51.718;5.324;2022-11-22T15:29:42;2.72;;;0.65;;
57055;SDS011;42945;51.718;5.324;2022-11-22T15:35:10;1.85;;;0.63;;
57055;SDS011;42945;51.718;5.324;2022-11-22T15:40:35;3.30;;;0.50;;
57055;SDS011;42945;51.718;5.324;2022-11-22T15:43:03;0.82;;;0.55;;
57055;SDS011;42945;51.718;5.324;2022-11-22T15:45:36;1.88;;;0.60;;
57055;SDS011;42945;51.718;5.324;2022-11-22T15:48:12;3.95;;;0.80;;
57055;SDS011;42945;51.718;5.324;2022-11-22T15:53:28;3.00;;;0.88;;
57055;SDS011;42945;51.718;5.324;2022-11-22T15:55:56;1.45;;;0.82;;
57055;SDS011;42945;51.718;5.324;2022-11-22T15:58:28;1.80;;;0.77;;
57055;SDS011;42945;51.718;5.324;2022-11-22T16:00:57;1.35;;;0.90;;
57055;SDS011;42945;51.718;5.324;2022-11-22T16:03:26;2.72;;;1.27;;
57055;SDS011;42945;51.718;5.324;2022-11-22T16:06:12;1.83;;;1.00;;
57055;SDS011;42945;51.718;5.324;2022-11-22T16:08:50;2.78;;;1.17;;
57055;SDS011;42945;51.718;5.324;2022-11-22T16:11:36;2.47;;;1.38;;
57055;SDS011;42945;51.718;5.324;2022-11-22T16:14:03;4.93;;;1.70;;
57055;SDS011;42945;51.718;5.324;2022-11-22T16:25:37;2.83;;;1.90;;
57055;SDS011;42945;51.718;5.324;2022-11-22T16:30:58;4.32;;;1.95;;
57055;SDS011;42945;51.718;5.324;2022-11-22T16:33:26;3.13;;;2.30;;
57055;SDS011;42945;51.718;5.324;2022-11-22T16:35:52;4.45;;;2.30;;
57055;SDS011;42945;51.718;5.324;2022-11-22T16:38:19;3.03;;;2.15;;
57055;SDS011;42945;51.718;5.324;2022-11-22T16:40:45;4.68;;;2.60;;
57055;SDS011;42945;51.718;5.324;2022-11-22T16:43:17;3.80;;;2.30;;
57055;SDS011;42945;51.718;5.324;2022-11-22T16:45:47;8.77;;;4.72;;
57055;SDS011;42945;51.718;5.324;2022-11-22T16:48:14;5.60;;;2.78;;
57055;SDS011;42945;51.718;5.324;2022-11-22T16:50:44;10.77;;;4.78;;
57055;SDS011;42945;51.718;5.324;2022-11-22T16:53:11;5.75;;;3.03;;
57055;SDS011;42945;51.718;5.324;2022-11-22T16:55:38;6.43;;;3.92;;
57055;SDS011;42945;51.718;5.324;2022-11-22T16:58:16;6.85;;;3.40;;
57055;SDS011;42945;51.718;5.324;2022-11-22T17:00:49;4.78;;;2.80;;
57055;SDS011;42945;51.718;5.324;2022-11-22T17:03:18;4.90;;;3.08;;
57055;SDS011;42945;51.718;5.324;2022-11-22T17:05:47;13.10;;;8.80;;
57055;SDS011;42945;51.718;5.324;2022-11-22T17:08:14;4.78;;;2.70;;
57055;SDS011;42945;51.718;5.324;2022-11-22T17:10:47;5.38;;;2.78;;
57055;SDS011;42945;51.718;5.324;2022-11-22T17:13:23;7.15;;;3.28;;
57055;SDS011;42945;51.718;5.324;2022-11-22T17:15:54;7.40;;;4.13;;
57055;SDS011;42945;51.718;5.324;2022-11-22T17:18:20;5.68;;;2.40;;
57055;SDS011;42945;51.718;5.324;2022-11-22T17:20:46;5.45;;;3.47;;
57055;SDS011;42945;51.718;5.324;2022-11-22T17:23:25;10.93;;;5.07;;
57055;SDS011;42945;51.718;5.324;2022-11-22T17:25:54;5.65;;;3.35;;
57055;SDS011;42945;51.718;5.324;2022-11-22T17:28:20;6.28;;;3.50;;
57055;SDS011;42945;51.718;5.324;2022-11-22T17:30:45;6.97;;;2.78;;
57055;SDS011;42945;51.718;5.324;2022-11-22T17:33:11;7.15;;;3.47;;
57055;SDS011;42945;51.718;5.324;2022-11-22T17:35:36;6.03;;;2.58;;
57055;SDS011;42945;51.718;5.324;2022-11-22T17:38:03;5.68;;;2.78;;